createdAt,value
2022-09-04T00:01:57.543Z,55.48
2022-09-04T00:04:24.491Z,55.60
2022-09-04T00:07:22.372Z,55.34
2022-09-04T00:10:23.724Z,55.47
2022-09-04T00:13:08.478Z,55.40
2022-09-04T00:15:39.705Z,55.41
2022-09-04T00:18:08.535Z,55.44
2022-09-04T00:21:00.301Z,55.37
2022-09-04T00:23:39.404Z,55.31
2022-09-04T00:26:23.558Z,55.38
2022-09-04T00:28:51.531Z,55.40
2022-09-04T00:31:30.462Z,55.34
2022-09-04T00:34:33.253Z,55.32
2022-09-04T00:37:04.548Z,55.37
2022-09-04T00:39:46.448Z,55.34
2022-09-04T00:42:35.163Z,55.35
2022-09-04T00:45:16.558Z,55.49
2022-09-04T00:47:58.664Z,55.65
2022-09-04T00:51:00.129Z,55.67
2022-09-04T00:53:55.237Z,55.67
2022-09-04T00:56:53.515Z,55.84
2022-09-04T00:59:57.635Z,56.15
2022-09-04T01:03:02.470Z,56.03
2022-09-04T01:05:40.690Z,56.19
2022-09-04T01:08:27.979Z,56.13
2022-09-04T01:11:32.344Z,56.35
2022-09-04T01:14:13.530Z,56.29
2022-09-04T01:17:05.162Z,56.34
2022-09-04T01:19:52.696Z,56.14
2022-09-04T01:22:36.233Z,56.04
2022-09-04T01:25:05.850Z,56.19
2022-09-04T01:27:48.261Z,56.15
2022-09-04T01:30:16.843Z,56.09
2022-09-04T01:33:12.054Z,56.05
2022-09-04T01:36:02.352Z,56.00
2022-09-04T01:38:43.638Z,55.95
2022-09-04T01:41:38.371Z,56.04
2022-09-04T01:44:10.002Z,56.01
2022-09-04T01:46:58.867Z,56.03
2022-09-04T01:49:28.992Z,55.95
2022-09-04T01:52:08.131Z,56.05
2022-09-04T01:54:54.335Z,56.02
2022-09-04T01:57:33.471Z,56.00
2022-09-04T02:00:10.352Z,55.97
2022-09-04T02:02:56.537Z,56.02
2022-09-04T02:05:29.859Z,56.12
2022-09-04T02:08:12.163Z,56.19
2022-09-04T02:10:54.601Z,56.18
2022-09-04T02:13:29.711Z,56.49
2022-09-04T02:16:04.578Z,56.44
2022-09-04T02:18:41.535Z,56.40
2022-09-04T02:21:31.940Z,56.41
2022-09-04T02:24:07.898Z,56.37
2022-09-04T02:26:43.045Z,56.35
2022-09-04T02:29:33.285Z,56.34
2022-09-04T02:32:21.795Z,56.38
2022-09-04T02:34:57.757Z,56.42
2022-09-04T02:37:30.848Z,56.22
2022-09-04T02:40:32.618Z,56.41
2022-09-04T02:43:21.585Z,56.50
2022-09-04T02:46:11.367Z,56.46
2022-09-04T02:48:47.630Z,56.42
2022-09-04T02:51:36.499Z,56.56
2022-09-04T02:54:33.446Z,56.67
2022-09-04T02:57:09.604Z,56.66
2022-09-04T02:59:55.499Z,56.83
2022-09-04T03:02:54.698Z,56.73
2022-09-04T03:05:23.798Z,56.73
2022-09-04T03:08:12.763Z,56.73
2022-09-04T03:10:44.316Z,56.73
2022-09-04T03:13:20.992Z,56.71
2022-09-04T03:16:04.547Z,56.69
2022-09-04T03:18:55.837Z,56.76
2022-09-04T03:21:52.712Z,56.85
2022-09-04T03:24:19.665Z,56.65
2022-09-04T03:26:50.952Z,56.73
2022-09-04T03:29:42.556Z,56.61
2022-09-04T03:32:17.045Z,56.57
2022-09-04T03:34:57.853Z,56.53
2022-09-04T03:37:31.663Z,56.41
2022-09-04T03:40:25.541Z,56.32
2022-09-04T03:42:55.490Z,56.30
2022-09-04T03:45:36.336Z,56.25
2022-09-04T03:48:42.094Z,56.15
2022-09-04T03:51:25.939Z,56.12
2022-09-04T03:54:08.284Z,56.15
2022-09-04T03:56:41.453Z,56.22
2022-09-04T03:59:10.063Z,56.09
2022-09-04T04:02:04.645Z,56.18
2022-09-04T04:04:35.492Z,55.98
2022-09-04T04:07:14.937Z,56.04
2022-09-04T04:10:07.586Z,55.80
2022-09-04T04:12:42.674Z,55.67
2022-09-04T04:15:38.674Z,55.88
2022-09-04T04:18:35.117Z,55.89
2022-09-04T04:21:21.224Z,56.00
2022-09-04T04:24:22.299Z,56.23
2022-09-04T04:27:14.923Z,56.23
2022-09-04T04:30:04.308Z,56.21
2022-09-04T04:33:13.240Z,56.19
2022-09-04T04:35:40.198Z,56.24
2022-09-04T04:38:46.271Z,56.15
2022-09-04T04:41:25.346Z,56.19
2022-09-04T04:44:11.619Z,56.11
2022-09-04T04:46:51.597Z,56.04
2022-09-04T04:49:57.630Z,56.06
2022-09-04T04:52:44.442Z,56.01
2022-09-04T04:55:16.657Z,56.12
2022-09-04T04:57:56.769Z,56.10
2022-09-04T05:00:46.247Z,55.94
2022-09-04T05:03:25.702Z,56.02
2022-09-04T05:06:02.649Z,56.01
2022-09-04T05:08:37.942Z,55.98
2022-09-04T05:11:23.236Z,56.00
2022-09-04T05:14:25.442Z,56.03
2022-09-04T05:17:04.591Z,55.92
2022-09-04T05:19:34.377Z,56.02
2022-09-04T05:22:09.252Z,55.79
2022-09-04T05:24:45.084Z,55.91
2022-09-04T05:27:22.793Z,55.94
2022-09-04T05:29:57.321Z,55.72
2022-09-04T05:32:42.505Z,55.61
2022-09-04T05:35:18.776Z,55.60
2022-09-04T05:37:56.172Z,55.62
2022-09-04T05:40:38.486Z,55.57
2022-09-04T05:43:17.518Z,55.37
2022-09-04T05:46:03.495Z,55.41
2022-09-04T05:48:52.802Z,55.32
2022-09-04T05:51:53.550Z,55.22
2022-09-04T05:54:39.351Z,55.05
2022-09-04T05:57:26.172Z,55.16
2022-09-04T06:00:25.798Z,54.93
2022-09-04T06:02:58.811Z,54.78
2022-09-04T06:05:53.798Z,54.75
2022-09-04T06:08:58.545Z,54.54
2022-09-04T06:11:34.204Z,54.28
2022-09-04T06:14:23.177Z,54.32
2022-09-04T06:16:53.303Z,54.52
2022-09-04T06:19:20.262Z,54.27
2022-09-04T06:21:56.538Z,53.77
2022-09-04T06:24:46.432Z,53.73
2022-09-04T06:27:23.522Z,53.58
2022-09-04T06:30:00.107Z,53.44
2022-09-04T06:33:05.567Z,53.49
2022-09-04T06:35:52.281Z,53.34
2022-09-04T06:38:22.401Z,52.98
2022-09-04T06:40:55.712Z,52.75
2022-09-04T06:44:00.353Z,52.25
2022-09-04T06:46:39.091Z,51.97
2022-09-04T06:49:47.613Z,51.85
2022-09-04T06:52:22.754Z,51.75
2022-09-04T06:55:26.881Z,51.27
2022-09-04T06:58:05.651Z,51.48
2022-09-04T07:00:54.424Z,51.25
2022-09-04T07:03:33.822Z,50.68
2022-09-04T07:06:30.712Z,50.56
2022-09-04T07:09:32.038Z,50.50
2022-09-04T07:12:18.443Z,50.07
2022-09-04T07:15:23.688Z,49.90
2022-09-04T07:18:12.865Z,49.92
2022-09-04T07:21:20.471Z,49.70
2022-09-04T07:23:59.076Z,49.14
2022-09-04T07:26:47.264Z,49.38
2022-09-04T07:29:41.232Z,49.19
2022-09-04T07:32:11.590Z,49.07
2022-09-04T07:35:00.586Z,48.65
2022-09-04T07:37:47.648Z,48.14
2022-09-04T07:40:42.043Z,47.62
2022-09-04T07:43:30.604Z,47.45
2022-09-04T07:46:23.095Z,47.22
2022-09-04T07:48:55.739Z,46.92
2022-09-04T07:51:34.637Z,46.87
2022-09-04T07:54:29.815Z,46.40
2022-09-04T07:57:22.745Z,46.03
2022-09-04T08:00:11.129Z,46.07
2022-09-04T08:03:01.811Z,46.28
2022-09-04T08:05:32.579Z,46.18
2022-09-04T08:08:34.006Z,46.11
2022-09-04T08:11:08.539Z,45.80
2022-09-04T08:14:00.580Z,44.87
2022-09-04T08:16:33.882Z,44.82
2022-09-04T08:19:41.044Z,44.73
2022-09-04T08:22:12.633Z,44.29
2022-09-04T08:24:44.908Z,43.52
2022-09-04T08:27:30.496Z,43.41
2022-09-04T08:30:12.546Z,43.59
2022-09-04T08:32:48.471Z,43.20
2022-09-04T08:35:15.724Z,42.83
2022-09-04T08:37:52.403Z,42.81
2022-09-04T08:40:55.319Z,42.43
2022-09-04T08:43:27.787Z,42.27
2022-09-04T08:46:19.928Z,42.13
2022-09-04T08:49:15.335Z,41.53
2022-09-04T08:52:03.613Z,41.43
2022-09-04T08:54:42.615Z,41.30
2022-09-04T08:57:23.904Z,41.26
2022-09-04T09:00:00.380Z,41.71
2022-09-04T09:02:46.842Z,40.98
2022-09-04T09:05:55.874Z,40.92
2022-09-04T09:08:47.655Z,41.41
2022-09-04T09:11:45.634Z,41.19
2022-09-04T09:14:32.249Z,41.16
2022-09-04T09:17:18.783Z,41.29
2022-09-04T09:20:25.742Z,40.80
2022-09-04T09:23:15.998Z,40.95
2022-09-04T09:26:06.754Z,40.72
2022-09-04T09:28:58.789Z,41.15
2022-09-04T09:31:56.938Z,41.34
2022-09-04T09:35:03.445Z,40.96
2022-09-04T09:38:04.545Z,40.76
2022-09-04T09:40:59.201Z,40.59
2022-09-04T09:43:42.324Z,39.93
2022-09-04T09:46:28.283Z,39.50
2022-09-04T09:49:25.681Z,39.32
2022-09-04T09:52:29.392Z,39.68
2022-09-04T09:55:12.622Z,39.59
2022-09-04T09:58:19.508Z,39.05
2022-09-04T10:01:13.864Z,38.60
2022-09-04T10:03:59.700Z,38.60
2022-09-04T10:06:59.662Z,38.47
2022-09-04T10:09:30.162Z,38.40
2022-09-04T10:12:03.363Z,38.37
2022-09-04T10:14:50.588Z,38.36
2022-09-04T10:17:34.329Z,37.90
2022-09-04T10:20:29.175Z,37.33
2022-09-04T10:23:25.919Z,37.20
2022-09-04T10:26:09.787Z,36.83
2022-09-04T10:29:11.498Z,37.30
2022-09-04T10:31:54.927Z,37.26
2022-09-04T10:34:45.578Z,36.96
2022-09-04T10:37:43.390Z,36.89
2022-09-04T10:40:39.601Z,36.53
2022-09-04T10:43:46.611Z,35.87
2022-09-04T10:46:42.023Z,35.69
2022-09-04T10:49:18.288Z,35.29
2022-09-04T10:52:00.391Z,35.00
2022-09-04T10:54:32.768Z,34.61
2022-09-04T10:57:00.192Z,33.88
2022-09-04T11:00:04.373Z,33.03
2022-09-04T11:02:41.351Z,33.76
2022-09-04T11:05:21.178Z,33.68
2022-09-04T11:08:18.232Z,33.36
2022-09-04T11:10:48.763Z,33.18
2022-09-04T11:13:46.065Z,33.75
2022-09-04T11:16:47.776Z,33.62
2022-09-04T11:20:00.748Z,33.26
2022-09-04T11:22:35.163Z,33.33
2022-09-04T11:25:33.828Z,33.33
2022-09-04T11:28:40.467Z,33.03
2022-09-04T11:31:26.826Z,31.94
2022-09-04T11:33:54.362Z,32.82
2022-09-04T11:36:36.562Z,32.11
2022-09-04T11:39:32.928Z,32.01
2022-09-04T11:42:20.830Z,32.58
2022-09-04T11:44:47.779Z,32.54
2022-09-04T11:47:33.975Z,31.90
2022-09-04T11:50:28.970Z,32.26
2022-09-04T11:52:56.937Z,32.11
2022-09-04T11:55:42.521Z,32.76
2022-09-04T11:58:46.853Z,32.84
2022-09-04T12:01:47.683Z,32.07
2022-09-04T12:04:44.116Z,31.93
2022-09-04T12:07:23.354Z,32.10
2022-09-04T12:09:52.234Z,31.07
2022-09-04T12:12:23.038Z,30.94
2022-09-04T12:15:20.835Z,31.60
2022-09-04T12:18:01.502Z,32.43
2022-09-04T12:20:50.562Z,31.94
2022-09-04T12:23:36.361Z,31.89
2022-09-04T12:26:31.255Z,31.76
2022-09-04T12:29:17.955Z,31.50
2022-09-04T12:31:51.476Z,31.85
2022-09-04T12:34:33.765Z,31.97
2022-09-04T12:37:36.028Z,32.31
2022-09-04T12:40:06.003Z,32.61
2022-09-04T12:42:48.763Z,32.35
2022-09-04T12:45:22.116Z,32.28
2022-09-04T12:47:59.131Z,32.18
2022-09-04T12:50:38.268Z,32.03
2022-09-04T12:53:19.636Z,32.03
2022-09-04T12:56:03.361Z,32.13
2022-09-04T12:58:34.625Z,32.20
2022-09-04T13:01:33.888Z,32.14
2022-09-04T13:04:15.311Z,31.94
2022-09-04T13:06:52.786Z,32.09
2022-09-04T13:09:41.558Z,32.24
2022-09-04T13:12:43.116Z,32.27
2022-09-04T13:15:22.028Z,32.41
2022-09-04T13:17:58.602Z,32.64
2022-09-04T13:20:41.328Z,32.71
2022-09-04T13:23:37.046Z,33.07
2022-09-04T13:26:16.675Z,32.81
2022-09-04T13:28:52.524Z,32.91
2022-09-04T13:31:20.393Z,32.72
2022-09-04T13:34:03.233Z,32.53
2022-09-04T13:36:54.317Z,32.30
2022-09-04T13:39:24.284Z,32.86
2022-09-04T13:42:10.970Z,32.98
2022-09-04T13:44:40.841Z,32.99
2022-09-04T13:47:32.907Z,33.04
2022-09-04T13:50:10.196Z,33.07
2022-09-04T13:52:55.836Z,33.07
2022-09-04T13:55:28.273Z,33.22
2022-09-04T13:57:59.010Z,33.28
2022-09-04T14:00:28.526Z,33.14
2022-09-04T14:03:01.161Z,33.09
2022-09-04T14:05:28.861Z,33.08
2022-09-04T14:08:03.076Z,33.21
2022-09-04T14:11:17.861Z,33.23
2022-09-04T14:14:31.392Z,33.19
2022-09-04T14:17:00.223Z,33.26
2022-09-04T14:19:33.281Z,33.22
2022-09-04T14:22:07.365Z,33.34
2022-09-04T14:24:47.174Z,33.36
2022-09-04T14:27:50.031Z,33.24
2022-09-04T14:30:22.370Z,33.10
2022-09-04T14:33:19.405Z,33.29
2022-09-04T14:36:05.759Z,33.32
2022-09-04T14:39:14.634Z,33.42
2022-09-04T14:42:19.277Z,33.59
2022-09-04T14:44:49.640Z,33.66
2022-09-04T14:47:32.605Z,33.88
2022-09-04T14:50:01.565Z,34.10
2022-09-04T14:52:33.074Z,33.98
2022-09-04T14:55:02.607Z,33.85
2022-09-04T14:57:39.806Z,33.82
2022-09-04T15:00:20.081Z,33.86
2022-09-04T15:02:59.488Z,33.52
2022-09-04T15:05:34.520Z,33.56
2022-09-04T15:08:03.550Z,33.53
2022-09-04T15:10:36.312Z,33.65
2022-09-04T15:13:09.388Z,33.93
2022-09-04T15:15:39.292Z,33.84
2022-09-04T15:18:16.089Z,33.84
2022-09-04T15:21:18.350Z,34.10
2022-09-04T15:24:08.634Z,34.18
2022-09-04T15:26:42.329Z,34.27
2022-09-04T15:29:11.735Z,34.43
2022-09-04T15:31:42.158Z,34.53
2022-09-04T15:34:11.050Z,34.58
2022-09-04T15:36:39.529Z,34.47
2022-09-04T15:39:11.245Z,34.45
2022-09-04T15:41:48.320Z,34.34
2022-09-04T15:44:15.926Z,34.38
2022-09-04T15:46:51.692Z,34.41
2022-09-04T15:50:12.829Z,34.50
2022-09-04T15:52:52.794Z,34.65
2022-09-04T15:55:32.279Z,34.85
2022-09-04T15:58:20.460Z,34.88
2022-09-04T16:01:09.689Z,35.02
2022-09-04T16:03:55.576Z,35.04
2022-09-04T16:06:30.112Z,35.43
2022-09-04T16:09:03.903Z,35.55
2022-09-04T16:11:43.207Z,35.57
2022-09-04T16:14:17.259Z,35.84
2022-09-04T16:16:49.721Z,35.84
2022-09-04T16:19:25.814Z,35.85
2022-09-04T16:22:24.364Z,35.84
2022-09-04T16:24:55.302Z,36.14
2022-09-04T16:27:24.549Z,36.35
2022-09-04T16:29:58.303Z,36.52
2022-09-04T16:32:27.635Z,36.44
2022-09-04T16:35:19.943Z,36.57
2022-09-04T16:38:02.143Z,36.83
2022-09-04T16:40:36.359Z,36.90
2022-09-04T16:43:34.237Z,36.94
2022-09-04T16:46:08.073Z,36.99
2022-09-04T16:48:42.552Z,36.93
2022-09-04T16:51:39.118Z,37.04
2022-09-04T16:54:16.727Z,37.14
2022-09-04T16:56:49.919Z,37.28
2022-09-04T16:59:39.592Z,37.45
2022-09-04T17:02:16.063Z,37.50
2022-09-04T17:04:45.871Z,37.61
2022-09-04T17:07:25.438Z,37.67
2022-09-04T17:10:03.386Z,37.78
2022-09-04T17:12:52.742Z,37.72
2022-09-04T17:15:53.745Z,37.94
2022-09-04T17:18:23.290Z,38.08
2022-09-04T17:25:40.607Z,38.20
2022-09-04T17:28:58.118Z,38.43
2022-09-04T17:29:09.932Z,38.39
2022-09-04T17:30:42.581Z,38.57
2022-09-04T17:40:35.593Z,38.78
2022-09-04T17:40:39.971Z,39.03
2022-09-04T17:40:51.887Z,38.94
2022-09-04T17:42:20.346Z,39.20
2022-09-04T17:45:17.060Z,39.29
2022-09-04T17:47:45.144Z,39.42
2022-09-04T17:50:20.291Z,39.51
2022-09-04T17:53:19.914Z,39.58
2022-09-04T17:56:06.752Z,39.66
2022-09-04T17:58:41.300Z,39.68
2022-09-04T18:01:14.108Z,39.75
2022-09-04T18:04:19.763Z,39.80
2022-09-04T18:06:52.199Z,39.83
2022-09-04T18:09:26.644Z,40.03
2022-09-04T18:12:11.409Z,40.19
2022-09-04T18:15:32.369Z,40.31
2022-09-04T18:17:52.360Z,40.38
2022-09-04T18:20:38.017Z,40.46
2022-09-04T18:23:26.812Z,40.51
2022-09-04T18:26:00.929Z,40.57
2022-09-04T18:29:26.402Z,40.51
2022-09-04T18:37:12.508Z,40.50
2022-09-04T18:37:17.608Z,40.70
2022-09-04T18:38:22.505Z,40.87
2022-09-04T18:43:37.348Z,41.08
2022-09-04T18:50:24.013Z,41.25
2022-09-04T18:50:39.228Z,41.48
2022-09-04T18:50:46.230Z,41.56
2022-09-04T18:52:51.769Z,41.76
2022-09-04T18:55:49.140Z,41.68
2022-09-04T18:58:45.179Z,41.72
2022-09-04T19:01:27.157Z,41.90
2022-09-04T19:04:29.567Z,41.99
2022-09-04T19:07:10.245Z,42.04
2022-09-04T19:10:03.824Z,42.16
2022-09-04T19:12:47.156Z,42.33
2022-09-04T19:15:36.617Z,42.45
2022-09-04T19:18:32.787Z,42.56
2022-09-04T19:21:08.797Z,42.85
2022-09-04T19:23:55.268Z,43.10
2022-09-04T19:26:48.368Z,43.04
2022-09-04T19:29:19.797Z,43.01
2022-09-04T19:31:57.657Z,43.12
2022-09-04T19:34:35.623Z,43.29
2022-09-04T19:37:41.638Z,43.27
2022-09-04T19:45:54.335Z,43.25
2022-09-04T19:46:11.849Z,43.30
2022-09-04T19:46:15.506Z,43.35
2022-09-04T19:50:50.606Z,43.41
2022-09-04T19:53:34.065Z,43.48
2022-09-04T19:55:23.907Z,43.61
2022-09-04T19:58:08.406Z,43.78
2022-09-04T20:00:43.552Z,43.87
2022-09-04T20:03:33.097Z,43.99
2022-09-04T20:06:20.521Z,44.05
2022-09-04T20:08:56.932Z,44.01
2022-09-04T20:11:34.704Z,44.21
2022-09-04T20:14:13.860Z,44.30
2022-09-04T20:16:48.821Z,44.49
2022-09-04T20:19:27.574Z,44.57
2022-09-04T20:22:10.583Z,44.59
2022-09-04T20:24:58.519Z,44.51
2022-09-04T20:27:37.355Z,44.47
2022-09-04T20:30:12.503Z,44.63
2022-09-04T20:32:54.113Z,44.46
2022-09-04T20:35:34.978Z,44.55
2022-09-04T20:38:41.364Z,44.63
2022-09-04T20:41:27.364Z,44.71
2022-09-04T20:44:09.006Z,44.87
2022-09-04T20:52:44.664Z,44.83
2022-09-04T20:52:50.229Z,44.94
2022-09-04T20:53:00.394Z,45.07
2022-09-04T20:55:39.005Z,45.19
2022-09-04T21:02:09.360Z,45.15
2022-09-04T21:03:22.273Z,45.40
2022-09-04T21:04:13.046Z,45.46
2022-09-04T21:06:52.301Z,45.53
2022-09-04T21:09:55.218Z,45.58
2022-09-04T21:12:31.139Z,45.64
2022-09-04T21:15:15.805Z,45.79
2022-09-04T21:18:14.331Z,45.86
2022-09-04T21:21:09.717Z,45.92
2022-09-04T21:24:02.833Z,45.93
2022-09-04T21:26:42.972Z,46.02
2022-09-04T21:29:30.169Z,46.08
2022-09-04T21:32:35.011Z,46.04
2022-09-04T21:35:31.762Z,46.15
2022-09-04T21:38:09.334Z,46.12
2022-09-04T21:40:51.344Z,46.21
2022-09-04T21:43:36.119Z,46.31
2022-09-04T21:46:12.892Z,46.42
2022-09-04T21:48:59.767Z,46.59
2022-09-04T21:51:41.579Z,46.60
2022-09-04T21:58:35.383Z,46.75
2022-09-04T22:02:36.344Z,46.68
2022-09-04T22:02:36.516Z,46.75
2022-09-04T22:05:17.492Z,47.08
2022-09-04T22:12:50.262Z,47.21
2022-09-04T22:13:44.178Z,47.13
2022-09-04T22:14:31.710Z,47.25
2022-09-04T22:17:05.957Z,47.30
2022-09-04T22:19:48.758Z,47.62
2022-09-04T22:22:35.058Z,47.60
2022-09-04T22:25:30.081Z,47.71
2022-09-04T22:28:08.931Z,47.91
2022-09-04T22:30:40.295Z,48.11
2022-09-04T22:33:13.663Z,48.26
2022-09-04T22:36:13.594Z,48.23
2022-09-04T22:39:08.387Z,48.09
2022-09-04T22:41:35.752Z,48.26
2022-09-04T22:44:12.249Z,48.26
2022-09-04T22:47:24.576Z,48.34
2022-09-04T22:50:06.756Z,48.36
2022-09-04T22:52:45.889Z,48.30
2022-09-04T22:55:40.409Z,48.31
2022-09-04T22:58:47.217Z,48.50
2022-09-04T23:01:46.214Z,48.43
2022-09-04T23:04:31.768Z,48.41
2022-09-04T23:13:09.468Z,48.62
2022-09-04T23:13:50.838Z,48.70
2022-09-04T23:13:57.712Z,48.74
2022-09-04T23:16:08.074Z,48.85
2022-09-04T23:20:40.009Z,48.96
2022-09-04T23:26:41.494Z,49.00
2022-09-04T23:26:45.850Z,49.06
2022-09-04T23:28:15.471Z,49.08
2022-09-04T23:31:29.429Z,49.12
2022-09-04T23:34:09.711Z,49.06
2022-09-04T23:36:58.466Z,49.05
2022-09-04T23:39:57.984Z,49.36
2022-09-04T23:42:37.230Z,49.35
2022-09-04T23:45:28.653Z,49.35
2022-09-04T23:48:31.143Z,49.50
2022-09-04T23:51:32.910Z,49.47
2022-09-04T23:54:25.055Z,49.42
2022-09-04T23:57:26.728Z,49.41
